Nearby METAR Reports

 

KTAN - Taunton, Massachusetts, USA
Distance from station: W 5mi, 8km
Updated: 01/26/2020 10:52pm
Overcast
Overcast
 Wind from SW
Wind: SW 5 mph , 7 km/h
Temperature: 37°F , 3°C
Wind Chill: 33°F , 1°C
Dew Point: 27°F , -3°C
Humidity: 65%
Barometer: 29.71 inHg , 1006.1 hPa
Clouds: Overcast
Visibility: 10 miles , 16 km
Cloud details: Overcast 4700 ft
2020/01/27 03:52 KTAN 270352Z AUTO 23004KT 10SM OVC047 03/M03 A2971 RMK AO2 SLP060 T00331028
KPYM - Plymouth, Massachusetts, USA
Distance from station: ENE 10mi, 16km
Updated: 01/26/2020 10:52pm
Overcast
Overcast
 Wind from WSW
Wind: WSW 10 mph , 17 km/h
Temperature: 37°F , 3°C
Wind Chill: 30°F , -1°C
Dew Point: 28°F , -2°C
Humidity: 70%
Barometer: 29.70 inHg , 1005.8 hPa
Clouds: Overcast
Visibility: 10 miles , 16 km
Cloud details: Overcast 4800 ft
2020/01/27 03:52 KPYM 270352Z AUTO 24009KT 10SM OVC048 03/M02 A2970 RMK AO2 SLP058 T00281022
 
KEWB - New Bedford, Massachusetts, USA
Distance from station: S 14mi, 23km
Updated: 01/26/2020 10:53pm
Clear
Clear
 Wind from WSW
Wind: WSW 8 mph , 13 km/h
Temperature: 37°F , 3°C
Wind Chill: 31°F , -1°C
Dew Point: 27°F , -3°C
Humidity: 65%
Barometer: 29.71 inHg , 1006.1 hPa
Clouds: Clear
Visibility: 10 miles , 16 km
2020/01/27 03:53 KEWB 270353Z AUTO 25007KT 10SM CLR 03/M03 A2971 RMK AO2 SLP060 T00281028 $
KGHG - Marshfield, Massachusetts, USA
Distance from station: NE 20mi, 31km
Updated: 01/26/2020 10:55pm
Few Clouds
Few Clouds
 Wind from WSW
Wind: WSW 7 mph , 11 km/h
Temperature: 37°F , 3°C
Wind Chill: 32°F , 0°C
Dew Point: 28°F , -2°C
Humidity: 70%
Barometer: 29.69 inHg , 1005.4 hPa
Clouds: Few Clouds
Visibility: 10 miles , 16 km
Cloud details: Few Clouds 4400 ft
2020/01/27 03:55 KGHG 270355Z AUTO 25006KT 10SM FEW044 03/M02 A2969 RMK AO2
 
KOWD - Norwood, Massachusetts, USA
Distance from station: NNW 24mi, 39km
Updated: 01/26/2020 10:53pm
Partly cloudy
Partly cloudy
 Wind from SW
Wind: SW 7 mph , 11 km/h
Temperature: 39°F , 4°C
Wind Chill: 34°F , 1°C
Dew Point: 27°F , -3°C
Humidity: 61%
Barometer: 29.69 inHg , 1005.4 hPa
Clouds: Partly cloudy
Visibility: 10 miles , 16 km
Cloud details: Partly cloudy 4500 ft
2020/01/27 03:53 KOWD 270353Z AUTO 23006KT 10SM SCT045 04/M03 A2969 RMK AO2 SLP054 T00441028
KMQE - East Milton, Massachusetts, USA
Distance from station: NNW 25mi, 40km
Updated: 01/26/2020 10:51pm

 Wind from WSW
Wind: WSW 12 mph , 19 km/h, Gust: 20 mph , 31 km/h
Temperature: 36°F , 2°C
Wind Chill: 28°F , -2°C
Dew Point: 27°F , -3°C
Humidity: 70%
Barometer: 29.65 inHg , 1004.1 hPa
2020/01/27 03:51 KMQE 270351Z AUTO 24010G17KT 02/M03 A2965 RMK AO1 SLP057 T00171033
 
KFMH - Falmouth/Otis Ab, Massachusetts, USA
Distance from station: SE 27mi, 44km
Updated: 01/26/2020 10:56pm
Clear
Clear
 Wind from W
Wind: W 13 mph , 20 km/h
Temperature: 36°F , 2°C
Wind Chill: 27°F , -3°C
Dew Point: 28°F , -2°C
Humidity: 75%
Barometer: 29.70 inHg , 1005.8 hPa
Clouds: Clear
Visibility: 10 miles , 16 km
2020/01/27 03:56 KFMH 270356Z 27011KT 10SM CLR 02/M02 A2970
KPVD - Providence/Green, Rhode Island, USA
Distance from station: WSW 29mi, 47km
Updated: 01/26/2020 10:51pm
Mostly cloudy
Mostly cloudy
 Wind from SW
Wind: SW 7 mph , 11 km/h
Temperature: 39°F , 4°C
Wind Chill: 34°F , 1°C
Dew Point: 28°F , -2°C
Humidity: 65%
Barometer: 29.72 inHg , 1006.4 hPa
Clouds: Mostly cloudy
Visibility: 10 miles , 16 km
Cloud details: Mostly cloudy 4700 ft
2020/01/27 03:51 KPVD 270351Z 23006KT 10SM BKN047 04/M02 A2972 RMK AO2 SLP064 T00391022
 
KSFZ - Pawtucket, Rhode Island, USA
Distance from station: W 30mi, 48km
Updated: 01/26/2020 10:56pm
Mostly cloudy
Mostly cloudy
 Wind from WSW
Wind: WSW 8 mph , 13 km/h
Temperature: 36°F , 2°C
Wind Chill: 30°F , -1°C
Dew Point: 27°F , -3°C
Humidity: 70%
Barometer: 29.69 inHg , 1005.4 hPa
Clouds: Mostly cloudy
Visibility: 10 miles , 16 km
Cloud details: Few Clouds 3900 ft
Mostly cloudy 4700 ft
2020/01/27 03:56 KSFZ 270356Z AUTO 25007KT 10SM FEW039 BKN047 02/M03 A2969 RMK AO2 SLP003 T00221028 FZRANO
KUUU - Newport, Rhode Island, USA
Distance from station: SW 31mi, 50km
Updated: 01/26/2020 10:53pm
Overcast
Overcast
 Wind from varies
Wind: varies 5 mph , 7 km/h
Temperature: 39°F , 4°C
Wind Chill: 35°F , 2°C
Dew Point: 28°F , -2°C
Humidity: 65%
Barometer: 29.72 inHg , 1006.4 hPa
Clouds: Overcast
Visibility: 10 miles , 16 km
Cloud details: Overcast 5000 ft
2020/01/27 03:53 KUUU 270353Z AUTO VRB04KT 10SM OVC050 04/M02 A2972 RMK AO2 SLP062 T00441022
 
KOQU - N. Kingston/Quon, Rhode Island, USA
Distance from station: SW 32mi, 52km
Updated: 01/26/2020 5:50pm
NOT Current
Partly cloudy
Partly cloudy
 Wind from WNW
Wind: WNW 9 mph , 15 km/h
Temperature: 41°F , 5°C
Wind Chill: 35°F , 2°C
Dew Point: 28°F , -2°C
Humidity: 61%
Barometer: 29.71 inHg , 1006.1 hPa
Clouds: Partly cloudy
Visibility: 10 miles , 16 km
Cloud details: Partly cloudy 6000 ft
2020/01/26 22:50 KOQU 262250Z 29008KT 10SM SCT060 05/M02 A2971 RMK LAST
KBOS - Boston, Massachusetts, USA
Distance from station: N 33mi, 54km
Updated: 01/26/2020 10:54pm
Mostly cloudy
Mostly cloudy
 Wind from SW
Wind: SW 13 mph , 20 km/h
Temperature: 41°F , 5°C
Wind Chill: 34°F , 1°C
Dew Point: 27°F , -3°C
Humidity: 57%
Barometer: 29.68 inHg , 1005.1 hPa
Clouds: Mostly cloudy
Visibility: 10 miles , 16 km
Cloud details: Mostly cloudy 4300 ft
2020/01/27 03:54 KBOS 270354Z 23011KT 10SM BKN043 05/M03 A2968 RMK AO2 SLP050 T00501028
 
KHYA - Hyannis, Massachusetts, USA
Distance from station: ESE 37mi, 59km
Updated: 01/26/2020 10:56pm
Clear
Clear
 Wind from WSW
Wind: WSW 6 mph , 9 km/h
Temperature: 36°F , 2°C
Wind Chill: 31°F , -1°C
Dew Point: 28°F , -2°C
Humidity: 75%
Barometer: 29.70 inHg , 1005.8 hPa
Clouds: Clear
Visibility: 10 miles , 16 km
2020/01/27 03:56 KHYA 270356Z AUTO 25005KT 10SM CLR 02/M02 A2970 RMK AO2 SLP057 T00171022
KMVY - Marthas Vineyard, Massachusetts, USA
Distance from station: SSE 37mi, 60km
Updated: 01/26/2020 10:53pm
Clear
Clear
 Wind from W
Wind: W 8 mph , 13 km/h
Temperature: 39°F , 4°C
Wind Chill: 33°F , 1°C
Dew Point: 32°F , 0°C
Humidity: 75%
Barometer: 29.72 inHg , 1006.4 hPa
Clouds: Clear
Visibility: 10 miles , 16 km
2020/01/27 03:53 KMVY 270353Z AUTO 27007KT 10SM CLR 04/00 A2972 RMK AO2 SLP065 T00390000
 
KPVC - Provincetown, Massachusetts, USA
Distance from station: ENE 38mi, 61km
Updated: 01/26/2020 10:56pm
Clear
Clear
 Wind from WSW
Wind: WSW 12 mph , 19 km/h
Temperature: 39°F , 4°C
Wind Chill: 32°F , 0°C
Dew Point: 32°F , 0°C
Humidity: 75%
Barometer: 29.70 inHg , 1005.8 hPa
Clouds: Clear
Visibility: 10 miles , 16 km
2020/01/27 03:56 KPVC 270356Z AUTO 25010KT 10SM CLR 04/00 A2970 RMK AO2 SLP056 T00390000 PNO $
KBED - Bedford, Massachusetts, USA
Distance from station: NNW 44mi, 72km
Updated: 01/26/2020 10:51pm
Overcast
Overcast
 Wind from SW
Wind: SW 5 mph , 7 km/h
Temperature: 39°F , 4°C
Wind Chill: 35°F , 2°C
Dew Point: 27°F , -3°C
Humidity: 61%
Barometer: 29.66 inHg , 1004.4 hPa
Clouds: Overcast
Visibility: 10 miles , 16 km
Cloud details: Overcast 3900 ft
2020/01/27 03:51 KBED 270351Z AUTO 22004KT 10SM OVC039 04/M03 A2966 RMK AO2 SLP059 T00391033
 
KBVY - Beverly, Massachusetts, USA
Distance from station: 0 48mi, 77km
Updated: 01/26/2020 10:53pm
Overcast
Overcast
 Wind from WSW
Wind: WSW 8 mph , 13 km/h
Temperature: 39°F , 4°C
Wind Chill: 33°F , 1°C
Dew Point: 27°F , -3°C
Humidity: 61%
Barometer: 29.66 inHg , 1004.4 hPa
Clouds: Overcast
Visibility: 10 miles , 16 km
Cloud details: Overcast 3800 ft
2020/01/27 03:53 KBVY 270353Z AUTO 24007KT 10SM OVC038 04/M03 A2966 RMK AO2 SLP039 T00391028 $
KCQX - Chatham, Massachusetts, USA
Distance from station: ESE 49mi, 80km
Updated: 01/26/2020 10:52pm
Clear
Clear
 Wind from WSW
Wind: WSW 6 mph , 9 km/h
Temperature: 36°F , 2°C
Wind Chill: 31°F , -1°C
Dew Point: 30°F , -1°C
Humidity: 81%
Barometer: 29.72 inHg , 1006.4 hPa
Clouds: Clear
Visibility: 10 miles , 16 km
2020/01/27 03:52 KCQX 270352Z AUTO 24005KT 10SM CLR 02/M01 A2972 RMK AO2 SLP064 T00221011